createdAt,value
2022-11-26T00:00:14.941Z,39.70
2022-11-26T00:03:06.925Z,40.30
2022-11-26T00:05:39.946Z,42.20
2022-11-26T00:08:20.746Z,39.60
2022-11-26T00:10:54.891Z,37.90
2022-11-26T00:13:30.413Z,40.90
2022-11-26T00:16:02.358Z,40.10
2022-11-26T00:18:36.560Z,38.80
2022-11-26T00:21:16.589Z,37.40
2022-11-26T00:23:48.721Z,38.90
2022-11-26T00:26:24.484Z,39.30
2022-11-26T00:29:00.177Z,38.70
2022-11-26T00:31:32.288Z,38.70
2022-11-26T00:34:06.479Z,36.90
2022-11-26T00:36:38.931Z,37.90
2022-11-26T00:39:17.600Z,38.80
2022-11-26T00:41:55.612Z,40.20
2022-11-26T00:44:27.955Z,40.50
2022-11-26T00:46:59.973Z,39.30
2022-11-26T00:49:31.835Z,41.50
2022-11-26T00:52:22.483Z,42.70
2022-11-26T00:54:54.495Z,42.90
2022-11-26T00:57:26.688Z,41.60
2022-11-26T00:59:58.640Z,45.10
2022-11-26T01:02:30.717Z,44.10
2022-11-26T01:05:02.751Z,44.60
2022-11-26T01:07:34.754Z,44.20
2022-11-26T01:10:08.355Z,44.10
2022-11-26T01:12:40.250Z,45.60
2022-11-26T01:15:13.897Z,45.90
2022-11-26T01:17:46.187Z,48.60
2022-11-26T01:20:25.659Z,45.70
2022-11-26T01:22:59.074Z,46.80
2022-11-26T01:25:31.004Z,49.60
2022-11-26T01:28:03.102Z,50.00
2022-11-26T01:30:35.953Z,50.90
2022-11-26T01:33:08.579Z,48.80
2022-11-26T01:35:40.852Z,51.20
2022-11-26T01:38:15.112Z,52.90
2022-11-26T01:41:03.904Z,54.90
2022-11-26T01:43:41.389Z,52.10
2022-11-26T01:46:17.822Z,51.20
2022-11-26T01:48:50.495Z,54.80
2022-11-26T01:51:26.779Z,58.40
2022-11-26T01:54:01.975Z,60.20
2022-11-26T01:56:38.497Z,55.00
2022-11-26T01:59:16.360Z,55.50
2022-11-26T02:01:48.671Z,58.80
2022-11-26T02:04:24.643Z,62.60
2022-11-26T02:06:58.028Z,61.60
2022-11-26T02:09:31.846Z,58.20
2022-11-26T02:12:04.123Z,60.30
2022-11-26T02:14:39.545Z,62.50
2022-11-26T02:17:21.667Z,60.00
2022-11-26T02:20:26.546Z,59.70
2022-11-26T02:23:29.225Z,64.50
2022-11-26T02:26:39.387Z,67.30
2022-11-26T02:29:20.091Z,68.30
2022-11-26T02:32:01.777Z,61.90
2022-11-26T02:34:41.891Z,60.50
2022-11-26T02:37:21.466Z,61.90
2022-11-26T02:39:54.214Z,64.70
2022-11-26T02:42:30.456Z,62.80
2022-11-26T02:45:07.546Z,58.10
2022-11-26T02:47:43.487Z,58.80
2022-11-26T02:50:20.199Z,60.30
2022-11-26T02:52:54.671Z,61.50
2022-11-26T02:55:30.592Z,57.90
2022-11-26T02:58:04.622Z,56.10
2022-11-26T03:00:40.602Z,56.90
2022-11-26T03:03:23.896Z,56.70
2022-11-26T03:05:58.942Z,54.40
2022-11-26T03:08:32.153Z,51.20
2022-11-26T03:11:04.313Z,52.10
2022-11-26T03:13:36.241Z,52.10
2022-11-26T03:16:08.793Z,51.70
2022-11-26T03:18:40.696Z,50.60
2022-11-26T03:21:12.585Z,47.20
2022-11-26T03:23:44.473Z,49.70
2022-11-26T03:26:16.389Z,52.20
2022-11-26T03:28:48.306Z,53.70
2022-11-26T03:31:20.170Z,51.70
2022-11-26T03:33:52.049Z,48.30
2022-11-26T03:36:24.593Z,52.10
2022-11-26T03:38:59.652Z,53.60
2022-11-26T03:41:32.033Z,53.10
2022-11-26T03:44:06.629Z,49.20
2022-11-26T03:46:38.636Z,50.20
2022-11-26T03:49:11.538Z,51.50
2022-11-26T03:51:43.593Z,52.80
2022-11-26T03:54:17.706Z,54.90
2022-11-26T03:56:49.770Z,49.60
2022-11-26T03:59:21.878Z,68.50
2022-11-26T04:01:54.023Z,55.70
2022-11-26T04:04:25.967Z,52.20
2022-11-26T04:06:58.166Z,48.30
2022-11-26T04:09:30.032Z,45.30
2022-11-26T04:12:01.929Z,48.40
2022-11-26T04:14:33.885Z,49.30
2022-11-26T04:17:05.969Z,47.90
2022-11-26T04:19:37.829Z,47.70
2022-11-26T04:22:09.680Z,42.60
2022-11-26T04:25:02.392Z,47.40
2022-11-26T04:27:35.353Z,52.60
2022-11-26T04:30:09.732Z,51.20
2022-11-26T04:32:41.793Z,46.10
2022-11-26T04:35:13.752Z,45.20
2022-11-26T04:37:45.729Z,45.60
2022-11-26T04:40:18.000Z,46.50
2022-11-26T04:42:49.880Z,45.50
2022-11-26T04:45:21.897Z,44.10
2022-11-26T04:47:53.948Z,45.30
2022-11-26T04:50:26.223Z,46.20
2022-11-26T04:52:58.232Z,46.10
2022-11-26T04:55:30.121Z,48.10
2022-11-26T04:58:02.175Z,46.90
2022-11-26T05:00:34.325Z,48.30
2022-11-26T05:03:06.483Z,46.50
2022-11-26T05:05:38.632Z,46.50
2022-11-26T05:08:10.691Z,45.00
2022-11-26T05:10:42.639Z,44.50
2022-11-26T05:13:14.606Z,44.10
2022-11-26T05:15:46.594Z,45.60
2022-11-26T05:18:18.650Z,44.80
2022-11-26T05:20:50.663Z,40.50
2022-11-26T05:23:22.627Z,41.80
2022-11-26T05:25:54.552Z,54.50
2022-11-26T05:28:26.581Z,56.60
2022-11-26T05:31:03.643Z,47.50
2022-11-26T05:33:35.496Z,41.80
2022-11-26T05:36:08.043Z,43.20
2022-11-26T05:38:42.603Z,43.10
2022-11-26T05:41:14.784Z,46.60
2022-11-26T05:43:46.845Z,41.30
2022-11-26T05:46:20.686Z,40.60
2022-11-26T05:48:52.815Z,42.50
2022-11-26T05:51:24.912Z,42.60
2022-11-26T05:53:56.923Z,41.70
2022-11-26T05:56:31.558Z,40.20
2022-11-26T05:59:03.542Z,40.90
2022-11-26T06:01:35.544Z,39.90
2022-11-26T06:04:08.406Z,40.90
2022-11-26T06:06:40.448Z,38.20
2022-11-26T06:09:12.658Z,40.00
2022-11-26T06:11:45.034Z,39.70
2022-11-26T06:14:17.068Z,38.60
2022-11-26T06:16:49.435Z,40.50
2022-11-26T06:19:21.327Z,45.50
2022-11-26T06:21:53.284Z,38.10
2022-11-26T06:24:25.167Z,38.40
2022-11-26T06:26:57.064Z,38.20
2022-11-26T06:29:29.006Z,38.20
2022-11-26T06:32:01.092Z,35.80
2022-11-26T06:34:33.158Z,35.50
2022-11-26T06:37:06.727Z,38.30
2022-11-26T06:39:38.769Z,38.00
2022-11-26T06:42:11.380Z,37.50
2022-11-26T06:44:43.753Z,35.40
2022-11-26T06:47:16.217Z,37.30
2022-11-26T06:49:48.177Z,38.50
2022-11-26T06:52:21.682Z,38.40
2022-11-26T06:54:53.691Z,37.00
2022-11-26T06:57:25.688Z,37.20
2022-11-26T06:59:57.700Z,52.60
2022-11-26T07:02:29.925Z,51.70
2022-11-26T07:05:02.145Z,41.90
2022-11-26T07:07:34.079Z,39.10
2022-11-26T07:10:10.212Z,38.80
2022-11-26T07:12:42.181Z,38.50
2022-11-26T07:15:15.014Z,39.40
2022-11-26T07:17:46.895Z,38.00
2022-11-26T07:20:21.073Z,35.90
2022-11-26T07:22:53.682Z,62.90
2022-11-26T07:25:26.156Z,68.90
2022-11-26T07:27:58.469Z,57.10
2022-11-26T07:30:30.425Z,47.80
2022-11-26T07:33:02.328Z,46.70
2022-11-26T07:35:34.392Z,44.80
2022-11-26T07:38:06.249Z,43.80
2022-11-26T07:40:38.327Z,41.90
2022-11-26T07:43:10.416Z,38.90
2022-11-26T07:45:42.669Z,40.70
2022-11-26T07:48:16.966Z,40.80
2022-11-26T07:50:49.328Z,39.00
2022-11-26T07:53:21.622Z,38.70
2022-11-26T07:55:53.959Z,38.20
2022-11-26T07:58:26.808Z,39.40
2022-11-26T08:00:58.947Z,39.10
2022-11-26T08:03:31.003Z,37.80
2022-11-26T08:06:06.196Z,35.50
2022-11-26T08:08:38.636Z,38.10
2022-11-26T08:11:15.870Z,39.40
2022-11-26T08:13:48.649Z,36.50
2022-11-26T08:16:20.584Z,36.40
2022-11-26T08:18:55.929Z,43.50
2022-11-26T08:21:28.548Z,46.70
2022-11-26T08:24:00.946Z,45.10
2022-11-26T08:26:37.369Z,42.60
2022-11-26T08:29:11.963Z,38.80
2022-11-26T08:31:46.464Z,38.60
2022-11-26T08:34:19.536Z,39.70
2022-11-26T08:36:51.440Z,38.00
2022-11-26T08:39:23.605Z,35.40
2022-11-26T08:41:55.651Z,36.70
2022-11-26T08:44:27.668Z,37.50
2022-11-26T08:46:59.626Z,36.80
2022-11-26T08:49:31.763Z,34.30
2022-11-26T08:52:03.868Z,36.10
2022-11-26T08:54:37.253Z,37.80
2022-11-26T08:57:11.624Z,62.00
2022-11-26T08:59:44.336Z,34.30
2022-11-26T09:02:18.778Z,37.20
2022-11-26T09:04:51.397Z,38.60
2022-11-26T09:07:23.515Z,39.30
2022-11-26T09:09:55.682Z,35.10
2022-11-26T09:12:27.759Z,34.50
2022-11-26T09:14:59.865Z,37.30
2022-11-26T09:17:31.824Z,38.90
2022-11-26T09:20:04.784Z,37.10
2022-11-26T09:22:38.218Z,34.90
2022-11-26T09:25:11.469Z,37.00
2022-11-26T09:27:45.318Z,37.70
2022-11-26T09:30:19.325Z,35.10
2022-11-26T09:32:51.617Z,36.60
2022-11-26T09:35:26.300Z,43.20
2022-11-26T09:37:58.721Z,37.40
2022-11-26T09:40:42.484Z,35.00
2022-11-26T09:43:25.146Z,34.40
2022-11-26T09:46:01.180Z,35.00
2022-11-26T09:48:35.044Z,35.80
2022-11-26T09:51:10.530Z,34.90
2022-11-26T09:53:47.403Z,33.00
2022-11-26T09:56:25.791Z,36.20
2022-11-26T09:59:01.859Z,37.90
2022-11-26T10:01:35.418Z,41.90
2022-11-26T10:04:10.741Z,38.40
2022-11-26T10:06:52.287Z,39.60
2022-11-26T10:09:50.820Z,41.70
2022-11-26T10:12:38.225Z,43.90
2022-11-26T10:15:30.103Z,39.40
2022-11-26T10:18:12.565Z,39.20
2022-11-26T10:20:58.986Z,41.90
2022-11-26T10:23:38.088Z,41.70
2022-11-26T10:26:17.096Z,40.00
2022-11-26T10:28:51.292Z,38.10
2022-11-26T10:31:26.629Z,39.90
2022-11-26T10:34:02.113Z,41.90
2022-11-26T10:36:39.253Z,40.80
2022-11-26T10:39:16.284Z,38.00
2022-11-26T10:41:49.029Z,40.20
2022-11-26T10:44:37.062Z,41.20
2022-11-26T10:47:28.091Z,42.10
2022-11-26T10:50:46.799Z,41.10
2022-11-26T10:53:42.780Z,45.90
2022-11-26T10:56:42.086Z,45.40
2022-11-26T10:59:25.788Z,45.40
2022-11-26T11:02:04.814Z,39.00
2022-11-26T11:04:40.713Z,39.00
2022-11-26T11:07:31.749Z,40.40
2022-11-26T11:10:17.029Z,39.10
2022-11-26T11:12:51.911Z,38.10
2022-11-26T11:15:29.286Z,44.10
2022-11-26T11:18:05.898Z,46.50
2022-11-26T11:20:40.394Z,48.00
2022-11-26T11:23:40.082Z,45.70
2022-11-26T11:26:21.362Z,53.60
2022-11-26T11:28:55.411Z,40.00
2022-11-26T11:31:28.971Z,41.50
2022-11-26T11:34:20.348Z,44.10
2022-11-26T11:37:03.632Z,44.90
2022-11-26T11:39:59.354Z,61.50
2022-11-26T11:42:49.157Z,41.20
2022-11-26T11:45:34.585Z,48.30
2022-11-26T11:48:16.938Z,52.80
2022-11-26T11:50:57.011Z,58.50
2022-11-26T11:53:40.548Z,49.60
2022-11-26T11:56:25.975Z,49.90
2022-11-26T11:59:23.494Z,48.70
2022-11-26T12:02:22.263Z,40.90
2022-11-26T12:05:15.457Z,42.70
2022-11-26T12:07:58.263Z,41.60
2022-11-26T12:10:44.730Z,40.50
2022-11-26T12:13:18.923Z,44.00
2022-11-26T12:15:57.152Z,46.00
2022-11-26T12:18:36.758Z,46.70
2022-11-26T12:21:14.016Z,45.30
2022-11-26T12:23:54.692Z,47.20
2022-11-26T12:26:32.034Z,45.70
2022-11-26T12:29:11.934Z,48.70
2022-11-26T12:31:47.984Z,47.10
2022-11-26T12:34:31.155Z,44.90
2022-11-26T12:37:07.437Z,47.50
2022-11-26T12:39:55.247Z,47.20
2022-11-26T12:42:42.181Z,46.60
2022-11-26T12:45:20.602Z,45.90
2022-11-26T12:47:59.291Z,46.00
2022-11-26T12:50:40.286Z,49.00
2022-11-26T12:53:18.682Z,48.50
2022-11-26T12:55:55.554Z,46.00
2022-11-26T12:58:33.588Z,44.40
2022-11-26T13:01:05.647Z,46.50
2022-11-26T13:03:38.819Z,47.70
2022-11-26T13:06:22.278Z,45.00
2022-11-26T13:09:05.616Z,44.50
2022-11-26T13:11:45.645Z,46.90
2022-11-26T13:14:27.253Z,46.20
2022-11-26T13:17:06.262Z,43.60
2022-11-26T13:19:42.333Z,40.10
2022-11-26T13:22:40.644Z,42.30
2022-11-26T13:25:46.355Z,52.00
2022-11-26T13:28:29.504Z,56.90
2022-11-26T13:31:18.725Z,56.40
2022-11-26T13:34:19.118Z,52.30
2022-11-26T13:37:07.553Z,44.20
2022-11-26T13:40:05.011Z,46.80
2022-11-26T13:43:19.794Z,47.20
2022-11-26T13:46:13.218Z,48.00
2022-11-26T13:48:57.595Z,65.70
2022-11-26T13:51:38.566Z,46.40
2022-11-26T13:54:18.264Z,46.00
2022-11-26T13:56:57.817Z,44.70
2022-11-26T13:59:32.873Z,50.90
2022-11-26T14:02:49.696Z,46.90
2022-11-26T14:05:21.896Z,47.80
2022-11-26T14:08:14.070Z,46.30
2022-11-26T14:10:46.324Z,48.10
2022-11-26T14:13:18.978Z,47.20
2022-11-26T14:15:57.161Z,46.50
2022-11-26T14:18:59.059Z,47.70
2022-11-26T14:21:32.103Z,44.10
2022-11-26T14:24:09.694Z,45.10
2022-11-26T14:26:44.811Z,48.50
2022-11-26T14:29:19.139Z,46.40
2022-11-26T14:31:55.063Z,45.20
2022-11-26T14:34:38.663Z,49.70
2022-11-26T14:37:16.294Z,49.50
2022-11-26T14:39:58.149Z,53.00
2022-11-26T14:42:30.727Z,48.60
2022-11-26T14:45:07.763Z,47.50
2022-11-26T14:47:42.317Z,48.80
2022-11-26T14:50:17.445Z,48.20
2022-11-26T14:52:56.658Z,46.50
2022-11-26T14:55:32.651Z,47.20
2022-11-26T14:58:09.800Z,49.10
2022-11-26T15:00:42.004Z,47.90
2022-11-26T15:03:26.226Z,40.60
2022-11-26T15:05:58.235Z,42.30
2022-11-26T15:08:30.560Z,49.70
2022-11-26T15:11:08.950Z,47.40
2022-11-26T15:13:42.811Z,44.70
2022-11-26T15:16:31.440Z,41.80
2022-11-26T15:19:05.781Z,43.80
2022-11-26T15:21:40.977Z,40.30
2022-11-26T15:24:15.566Z,42.30
2022-11-26T15:26:49.317Z,42.80
2022-11-26T15:29:41.195Z,43.10
2022-11-26T15:35:28.011Z,41.10
2022-11-26T15:38:00.093Z,83.50
2022-11-26T15:40:45.049Z,59.50
2022-11-26T15:43:46.944Z,43.30
2022-11-26T15:46:22.640Z,46.90
2022-11-26T15:48:59.103Z,48.90
2022-11-26T15:51:35.994Z,49.10
2022-11-26T15:54:19.442Z,52.10
2022-11-26T15:56:55.413Z,54.90
2022-11-26T15:59:29.948Z,52.80
2022-11-26T16:02:13.916Z,67.10
2022-11-26T16:04:49.714Z,59.10
2022-11-26T16:07:23.708Z,60.10
2022-11-26T16:10:21.493Z,68.70
2022-11-26T16:13:22.869Z,62.20
2022-11-26T16:16:03.006Z,52.90
2022-11-26T16:18:39.667Z,57.00
2022-11-26T16:21:24.603Z,92.40
2022-11-26T16:24:03.015Z,60.10
2022-11-26T16:27:06.133Z,49.40
2022-11-26T16:29:38.729Z,65.80
2022-11-26T16:32:11.112Z,71.70
2022-11-26T16:34:43.305Z,58.00
2022-11-26T16:37:24.967Z,54.70
2022-11-26T16:40:05.977Z,52.80
2022-11-26T16:42:40.876Z,50.80
2022-11-26T16:45:14.321Z,78.40
2022-11-26T16:47:48.448Z,82.50
2022-11-26T16:50:22.646Z,54.40
2022-11-26T16:52:55.665Z,56.20
2022-11-26T16:55:29.202Z,65.50
2022-11-26T16:58:06.044Z,77.00
2022-11-26T17:00:40.075Z,64.50
2022-11-26T17:06:13.224Z,70.20
2022-11-26T17:08:49.746Z,73.70
2022-11-26T17:11:22.727Z,64.50
2022-11-26T17:13:54.902Z,75.20
2022-11-26T17:16:27.174Z,75.30
2022-11-26T17:19:04.738Z,77.30
2022-11-26T17:21:38.931Z,78.70
2022-11-26T17:24:11.363Z,65.60
2022-11-26T17:26:44.038Z,64.20
2022-11-26T17:29:16.503Z,79.10
2022-11-26T17:31:48.334Z,62.70
2022-11-26T17:34:20.213Z,70.20
2022-11-26T17:36:53.014Z,62.70
2022-11-26T17:39:24.967Z,67.30
2022-11-26T17:41:58.231Z,64.00
2022-11-26T17:44:30.155Z,52.10
2022-11-26T17:47:16.734Z,59.80
2022-11-26T17:49:50.324Z,62.00
2022-11-26T17:52:23.421Z,57.50
2022-11-26T17:55:36.000Z,50.70
2022-11-26T17:58:08.089Z,54.90
2022-11-26T18:00:39.987Z,68.30
2022-11-26T18:03:12.180Z,67.40
2022-11-26T18:05:46.588Z,63.90
2022-11-26T18:08:19.285Z,53.90
2022-11-26T18:10:51.188Z,58.60
2022-11-26T18:13:23.449Z,57.60
2022-11-26T18:16:01.039Z,51.90
2022-11-26T18:18:35.561Z,69.40
2022-11-26T18:21:08.017Z,87.80
2022-11-26T18:23:41.530Z,71.20
2022-11-26T18:26:19.876Z,76.60
2022-11-26T18:28:51.796Z,63.50
2022-11-26T18:31:24.341Z,55.00
2022-11-26T18:33:57.405Z,51.80
2022-11-26T18:36:31.762Z,47.60
2022-11-26T18:39:05.718Z,49.40
2022-11-26T18:41:38.825Z,51.70
2022-11-26T18:44:12.005Z,50.40
2022-11-26T18:46:44.081Z,47.80
2022-11-26T18:49:16.405Z,49.70
2022-11-26T18:51:49.151Z,50.30
2022-11-26T18:54:21.174Z,59.50
2022-11-26T18:56:53.181Z,51.90
2022-11-26T18:59:25.730Z,51.60
2022-11-26T19:01:57.768Z,51.20
2022-11-26T19:04:29.991Z,54.40
2022-11-26T19:07:02.608Z,50.20
2022-11-26T19:09:34.970Z,45.90
2022-11-26T19:12:09.622Z,47.10
2022-11-26T19:14:41.718Z,48.90
2022-11-26T19:17:17.216Z,48.10
2022-11-26T19:20:16.182Z,45.20
2022-11-26T19:22:48.124Z,48.30
2022-11-26T19:25:33.896Z,48.30
2022-11-26T19:28:06.084Z,44.70
2022-11-26T19:30:38.046Z,41.10
2022-11-26T19:33:09.939Z,44.50
2022-11-26T19:35:42.790Z,47.50
2022-11-26T19:38:14.719Z,45.70
2022-11-26T19:40:46.832Z,44.70
2022-11-26T19:43:18.972Z,46.50
2022-11-26T19:45:50.970Z,46.50
2022-11-26T19:48:22.937Z,45.60
2022-11-26T19:50:57.816Z,41.90
2022-11-26T19:53:30.779Z,40.90
2022-11-26T19:56:11.450Z,45.90
2022-11-26T19:58:45.087Z,53.00
2022-11-26T20:01:19.170Z,46.30
2022-11-26T20:03:51.426Z,46.50
2022-11-26T20:06:26.603Z,48.60
2022-11-26T20:08:59.203Z,43.70
2022-11-26T20:11:32.666Z,39.20
2022-11-26T20:14:04.796Z,40.40
2022-11-26T20:16:37.473Z,42.00
2022-11-26T20:19:10.947Z,42.40
2022-11-26T20:21:42.844Z,41.00
2022-11-26T20:24:18.653Z,38.50
2022-11-26T20:26:55.319Z,43.20
2022-11-26T20:29:27.411Z,43.80
2022-11-26T20:31:59.299Z,41.40
2022-11-26T20:34:33.719Z,40.30
2022-11-26T20:37:05.886Z,42.20
2022-11-26T20:39:38.335Z,43.20
2022-11-26T20:42:11.958Z,41.30
2022-11-26T20:44:44.289Z,39.70
2022-11-26T20:47:16.353Z,42.30
2022-11-26T20:49:50.603Z,44.70
2022-11-26T20:52:24.216Z,42.90
2022-11-26T20:54:56.166Z,41.60
2022-11-26T20:57:28.195Z,43.90
2022-11-26T21:00:00.476Z,49.20
2022-11-26T21:02:33.195Z,46.50
2022-11-26T21:05:07.258Z,43.10
2022-11-26T21:07:39.685Z,52.00
2022-11-26T21:10:15.863Z,57.70
2022-11-26T21:12:47.986Z,48.10
2022-11-26T21:15:20.437Z,42.60
2022-11-26T21:17:52.950Z,46.60
2022-11-26T21:20:25.483Z,45.30
2022-11-26T21:22:57.852Z,43.10
2022-11-26T21:25:29.984Z,37.40
2022-11-26T21:28:02.417Z,39.40
2022-11-26T21:30:35.435Z,41.10
2022-11-26T21:33:09.598Z,39.70
2022-11-26T21:35:41.957Z,38.70
2022-11-26T21:38:15.279Z,39.30
2022-11-26T21:40:47.289Z,40.40
2022-11-26T21:43:20.763Z,38.20
2022-11-26T21:45:52.703Z,39.60
2022-11-26T21:48:27.504Z,47.30
2022-11-26T21:50:59.460Z,47.80
2022-11-26T21:53:31.396Z,47.50
2022-11-26T21:56:09.073Z,44.20
2022-11-26T21:58:41.435Z,44.20
2022-11-26T22:01:15.477Z,41.40
2022-11-26T22:03:49.590Z,37.50
2022-11-26T22:06:23.429Z,38.50
2022-11-26T22:08:56.763Z,40.60
2022-11-26T22:11:30.441Z,41.50
2022-11-26T22:14:02.518Z,38.90
2022-11-26T22:16:35.441Z,38.40
2022-11-26T22:19:08.170Z,39.80
2022-11-26T22:21:42.344Z,42.00
2022-11-26T22:24:17.246Z,42.30
2022-11-26T22:26:49.909Z,48.60
2022-11-26T22:29:22.202Z,49.70
2022-11-26T22:31:54.147Z,47.70
2022-11-26T22:34:27.843Z,41.60
2022-11-26T22:37:01.027Z,39.60
2022-11-26T22:39:33.102Z,41.60
2022-11-26T22:42:09.230Z,41.70
2022-11-26T22:44:41.151Z,40.80
2022-11-26T22:47:13.142Z,38.50
2022-11-26T22:49:45.367Z,39.50
2022-11-26T22:55:03.581Z,38.80
2022-11-26T22:57:38.363Z,36.80
2022-11-26T23:00:34.178Z,38.30
2022-11-26T23:03:06.278Z,40.20
2022-11-26T23:05:40.707Z,38.70
2022-11-26T23:08:13.654Z,36.30
2022-11-26T23:10:46.296Z,39.70
2022-11-26T23:13:19.159Z,40.80
2022-11-26T23:15:51.222Z,40.90
2022-11-26T23:18:23.270Z,37.90
2022-11-26T23:21:05.333Z,40.10
2022-11-26T23:23:38.267Z,41.60
2022-11-26T23:26:13.256Z,41.90
2022-11-26T23:28:45.154Z,39.00
2022-11-26T23:31:19.596Z,39.70
2022-11-26T23:33:52.407Z,42.40
2022-11-26T23:36:25.324Z,40.20
2022-11-26T23:38:57.834Z,38.00
2022-11-26T23:41:30.633Z,41.20
2022-11-26T23:44:03.525Z,42.40
2022-11-26T23:46:36.384Z,39.90
2022-11-26T23:49:08.380Z,38.30
2022-11-26T23:51:41.666Z,38.90
2022-11-26T23:54:13.915Z,41.90
2022-11-26T23:56:46.311Z,42.30
2022-11-26T23:59:18.494Z,37.90
